createdAt,value
2022-10-15T00:01:32.106Z,43.88
2022-10-15T00:04:03.922Z,33.85
2022-10-15T00:06:31.898Z,35.90
2022-10-15T00:08:59.059Z,32.22
2022-10-15T00:11:28.559Z,37.85
2022-10-15T00:14:00.791Z,39.22
2022-10-15T00:16:29.717Z,30.92
2022-10-15T00:18:59.188Z,40.08
2022-10-15T00:21:26.685Z,38.95
2022-10-15T00:23:54.252Z,36.85
2022-10-15T00:26:28.468Z,38.50
2022-10-15T00:29:00.408Z,33.10
2022-10-15T00:31:30.568Z,38.83
2022-10-15T00:34:01.019Z,30.30
2022-10-15T00:36:34.083Z,35.20
2022-10-15T00:39:02.375Z,30.50
2022-10-15T00:41:36.967Z,43.95
2022-10-15T00:44:24.172Z,35.42
2022-10-15T00:47:04.996Z,38.83
2022-10-15T00:49:39.201Z,34.00
2022-10-15T00:52:50.867Z,34.28
2022-10-15T00:55:32.705Z,32.35
2022-10-15T00:58:14.144Z,34.45
2022-10-15T01:00:42.472Z,36.28
2022-10-15T01:03:10.230Z,41.30
2022-10-15T01:05:39.299Z,39.47
2022-10-15T01:08:11.320Z,44.13
2022-10-15T01:11:11.793Z,35.28
2022-10-15T01:14:13.334Z,49.03
2022-10-15T01:17:14.541Z,37.22
2022-10-15T01:20:12.886Z,40.70
2022-10-15T01:23:02.780Z,37.92
2022-10-15T01:25:44.516Z,36.83
2022-10-15T01:28:20.790Z,37.40
2022-10-15T01:31:02.639Z,38.90
2022-10-15T01:33:54.767Z,33.90
2022-10-15T01:37:12.220Z,35.40
2022-10-15T01:39:56.256Z,34.78
2022-10-15T01:42:39.134Z,32.47
2022-10-15T01:45:12.978Z,38.22
2022-10-15T01:48:05.653Z,38.22
2022-10-15T01:50:37.812Z,36.50
2022-10-15T01:53:08.137Z,34.85
2022-10-15T01:55:37.853Z,35.97
2022-10-15T01:58:06.291Z,41.40
2022-10-15T02:00:33.604Z,36.75
2022-10-15T02:03:04.660Z,38.90
2022-10-15T02:05:51.938Z,39.03
2022-10-15T02:09:15.638Z,45.58
2022-10-15T02:12:53.139Z,38.97
2022-10-15T02:15:31.637Z,38.40
2022-10-15T02:18:39.781Z,38.97
2022-10-15T02:21:14.365Z,40.90
2022-10-15T02:23:56.791Z,39.65
2022-10-15T02:26:30.522Z,40.92
2022-10-15T02:29:01.159Z,35.50
2022-10-15T02:31:33.436Z,31.48
2022-10-15T02:34:07.843Z,32.60
2022-10-15T02:36:41.422Z,31.75
2022-10-15T02:39:13.207Z,35.28
2022-10-15T02:41:40.721Z,29.98
2022-10-15T02:44:10.702Z,30.15
2022-10-15T02:46:38.337Z,34.13
2022-10-15T02:49:06.239Z,32.08
2022-10-15T02:51:35.476Z,34.33
2022-10-15T02:54:05.219Z,32.42
2022-10-15T02:56:32.648Z,31.88
2022-10-15T02:59:00.183Z,32.70
2022-10-15T03:01:27.619Z,29.00
2022-10-15T03:03:55.038Z,36.80
2022-10-15T03:06:22.436Z,36.38
2022-10-15T03:08:50.604Z,36.20
2022-10-15T03:11:18.040Z,33.20
2022-10-15T03:13:45.324Z,38.33
2022-10-15T03:16:13.393Z,36.83
2022-10-15T03:18:44.366Z,36.30
2022-10-15T03:21:11.788Z,32.17
2022-10-15T03:23:40.008Z,36.97
2022-10-15T03:26:14.062Z,33.42
2022-10-15T03:28:42.023Z,34.60
2022-10-15T03:31:09.787Z,35.72
2022-10-15T03:33:37.022Z,33.85
2022-10-15T03:36:04.752Z,31.95
2022-10-15T03:38:32.689Z,35.00
2022-10-15T03:41:00.378Z,37.90
2022-10-15T03:43:37.552Z,38.03
2022-10-15T03:46:08.504Z,37.42
2022-10-15T03:48:40.273Z,36.45
2022-10-15T03:51:07.562Z,35.97
2022-10-15T03:53:35.394Z,34.67
2022-10-15T03:56:06.866Z,33.42
2022-10-15T03:58:38.036Z,28.13
2022-10-15T04:01:17.136Z,31.02
2022-10-15T04:03:44.949Z,29.15
2022-10-15T04:06:14.018Z,30.50
2022-10-15T04:08:41.416Z,33.97
2022-10-15T04:11:22.014Z,28.17
2022-10-15T04:13:58.884Z,24.52
2022-10-15T04:16:26.279Z,27.70
2022-10-15T04:18:53.656Z,26.17
2022-10-15T04:21:21.618Z,23.02
2022-10-15T04:23:54.724Z,24.58
2022-10-15T04:26:27.512Z,21.77
2022-10-15T04:28:54.816Z,24.80
2022-10-15T04:31:24.000Z,22.30
2022-10-15T04:33:51.292Z,24.55
2022-10-15T04:36:18.740Z,20.10
2022-10-15T04:38:52.846Z,22.92
2022-10-15T04:41:30.788Z,24.75
2022-10-15T04:44:05.227Z,22.00
2022-10-15T04:46:33.225Z,17.83
2022-10-15T04:49:08.349Z,20.73
2022-10-15T04:51:35.808Z,20.05
2022-10-15T04:54:28.893Z,19.65
2022-10-15T04:56:59.248Z,20.45
2022-10-15T04:59:27.874Z,20.58
2022-10-15T05:02:17.882Z,23.60
2022-10-15T05:04:49.562Z,21.98
2022-10-15T05:07:17.003Z,23.58
2022-10-15T05:09:46.501Z,29.15
2022-10-15T05:12:14.607Z,20.80
2022-10-15T05:14:42.044Z,23.38
2022-10-15T05:17:19.062Z,19.92
2022-10-15T05:19:46.483Z,21.95
2022-10-15T05:22:21.239Z,18.10
2022-10-15T05:24:59.872Z,23.15
2022-10-15T05:27:36.157Z,22.52
2022-10-15T05:30:05.962Z,20.10
2022-10-15T05:32:42.661Z,18.17
2022-10-15T05:35:12.604Z,20.27
2022-10-15T05:38:04.747Z,19.25
2022-10-15T05:40:32.077Z,19.33
2022-10-15T05:43:07.989Z,17.00
2022-10-15T05:45:35.187Z,17.42
2022-10-15T05:48:05.474Z,20.35
2022-10-15T05:50:33.144Z,18.65
2022-10-15T05:53:02.643Z,15.23
2022-10-15T05:55:42.721Z,18.80
2022-10-15T05:58:10.022Z,16.75
2022-10-15T06:00:39.567Z,21.67
2022-10-15T06:03:06.770Z,14.88
2022-10-15T06:05:34.090Z,17.50
2022-10-15T06:08:01.290Z,15.20
2022-10-15T06:10:28.639Z,15.02
2022-10-15T06:12:55.989Z,15.38
2022-10-15T06:15:23.213Z,19.02
2022-10-15T06:17:54.331Z,14.73
2022-10-15T06:20:21.689Z,15.85
2022-10-15T06:22:49.025Z,15.15
2022-10-15T06:25:16.770Z,15.73
2022-10-15T06:27:44.008Z,17.63
2022-10-15T06:30:11.661Z,16.15
2022-10-15T06:32:38.943Z,15.35
2022-10-15T06:35:06.845Z,20.23
2022-10-15T06:37:34.440Z,19.33
2022-10-15T06:40:01.697Z,17.42
2022-10-15T06:42:28.945Z,13.82
2022-10-15T06:44:56.209Z,14.32
2022-10-15T06:47:23.571Z,14.07
2022-10-15T06:49:50.944Z,15.43
2022-10-15T06:52:18.194Z,12.18
2022-10-15T06:54:45.464Z,16.10
2022-10-15T06:57:14.271Z,13.55
2022-10-15T06:59:41.786Z,13.70
2022-10-15T07:02:14.283Z,15.35
2022-10-15T07:04:41.665Z,11.32
2022-10-15T07:07:09.342Z,13.00
2022-10-15T07:09:36.925Z,13.65
2022-10-15T07:12:05.075Z,14.20
2022-10-15T07:14:32.628Z,14.50
2022-10-15T07:17:00.378Z,18.00
2022-10-15T07:19:29.205Z,13.05
2022-10-15T07:21:57.013Z,14.48
2022-10-15T07:24:24.410Z,12.45
2022-10-15T07:26:51.729Z,18.30
2022-10-15T07:29:19.069Z,17.42
2022-10-15T07:31:47.095Z,11.38
2022-10-15T07:34:17.216Z,13.80
2022-10-15T07:36:44.442Z,12.63
2022-10-15T07:39:11.953Z,13.30
2022-10-15T07:41:39.460Z,16.65
2022-10-15T07:44:06.976Z,16.73
2022-10-15T07:46:34.559Z,15.38
2022-10-15T07:49:01.951Z,13.63
2022-10-15T07:51:29.209Z,11.05
2022-10-15T07:53:56.797Z,11.30
2022-10-15T07:56:24.176Z,13.02
2022-10-15T07:58:54.353Z,14.73
2022-10-15T08:01:22.209Z,14.23
2022-10-15T08:03:49.558Z,8.88
2022-10-15T08:06:17.456Z,11.55
2022-10-15T08:08:45.106Z,11.82
2022-10-15T08:11:15.833Z,14.00
2022-10-15T08:13:43.858Z,12.02
2022-10-15T08:16:14.372Z,10.38
2022-10-15T08:18:42.968Z,10.48
2022-10-15T08:21:11.918Z,7.82
2022-10-15T08:23:39.185Z,8.63
2022-10-15T08:26:06.708Z,14.25
2022-10-15T08:28:35.706Z,10.57
2022-10-15T08:31:05.874Z,7.93
2022-10-15T08:33:36.117Z,12.05
2022-10-15T08:36:06.556Z,11.98
2022-10-15T08:38:35.381Z,9.65
2022-10-15T08:41:12.695Z,10.63
2022-10-15T08:43:46.814Z,11.75
2022-10-15T08:46:30.194Z,9.90
2022-10-15T08:49:00.932Z,11.52
2022-10-15T08:51:53.585Z,10.57
2022-10-15T08:54:20.950Z,9.63
2022-10-15T08:56:54.934Z,7.95
2022-10-15T08:59:46.632Z,9.90
2022-10-15T09:02:29.252Z,11.20
2022-10-15T09:05:50.140Z,14.85
2022-10-15T09:08:29.017Z,8.80
2022-10-15T09:11:19.575Z,7.95
2022-10-15T09:16:29.470Z,10.25
2022-10-15T09:18:58.661Z,10.18
2022-10-15T09:21:26.802Z,7.40
2022-10-15T09:24:02.620Z,8.60
2022-10-15T09:27:24.433Z,11.52
2022-10-15T09:30:25.789Z,6.43
2022-10-15T09:33:07.057Z,10.57
2022-10-15T09:35:48.154Z,10.52
2022-10-15T09:38:45.046Z,7.13
2022-10-15T09:41:33.221Z,11.30
2022-10-15T09:44:03.655Z,7.72
2022-10-15T09:46:47.983Z,9.13
2022-10-15T09:49:26.001Z,8.35
2022-10-15T09:52:07.618Z,8.45
2022-10-15T09:57:20.055Z,9.63
2022-10-15T09:59:56.902Z,10.40
2022-10-15T10:02:26.104Z,6.95
2022-10-15T10:04:54.416Z,8.98
2022-10-15T10:07:38.308Z,8.25
2022-10-15T10:10:28.716Z,8.82
2022-10-15T10:12:57.173Z,11.77
2022-10-15T10:15:42.864Z,10.18
2022-10-15T10:18:32.170Z,9.90
2022-10-15T10:21:03.767Z,8.68
2022-10-15T10:23:35.248Z,12.57
2022-10-15T10:26:11.072Z,10.35
2022-10-15T10:28:53.770Z,10.10
2022-10-15T10:31:42.530Z,7.00
2022-10-15T10:34:21.015Z,10.60
2022-10-15T10:36:53.244Z,9.05
2022-10-15T10:42:07.401Z,6.57
2022-10-15T10:44:46.558Z,7.68
2022-10-15T10:47:26.052Z,7.90
2022-10-15T10:49:58.978Z,9.75
2022-10-15T10:52:34.371Z,6.65
2022-10-15T10:55:18.522Z,6.45
2022-10-15T10:57:50.958Z,8.10
2022-10-15T11:00:41.394Z,7.75
2022-10-15T11:03:33.225Z,7.80
2022-10-15T11:06:26.037Z,12.65
2022-10-15T11:09:36.473Z,9.35
2022-10-15T11:12:12.356Z,12.68
2022-10-15T11:14:48.482Z,7.35
2022-10-15T11:17:52.386Z,8.70
2022-10-15T11:20:59.702Z,11.25
2022-10-15T11:23:55.923Z,8.20
2022-10-15T11:27:11.449Z,6.90
2022-10-15T11:29:58.181Z,9.38
2022-10-15T11:32:47.917Z,7.68
2022-10-15T11:35:51.984Z,11.02
2022-10-15T11:40:58.749Z,8.32
2022-10-15T11:44:09.464Z,8.23
2022-10-15T11:50:01.441Z,8.25
2022-10-15T11:52:49.095Z,7.47
2022-10-15T11:55:57.523Z,7.28
2022-10-15T11:58:47.565Z,8.43
2022-10-15T12:01:37.474Z,7.07
2022-10-15T12:04:44.254Z,6.72
2022-10-15T12:07:33.373Z,6.70
2022-10-15T12:10:24.371Z,6.57
2022-10-15T12:13:18.770Z,5.80
2022-10-15T12:16:35.188Z,7.32
2022-10-15T12:19:25.512Z,7.70
2022-10-15T12:21:56.795Z,9.18
2022-10-15T12:24:47.567Z,8.18
2022-10-15T12:27:19.965Z,8.35
2022-10-15T12:30:13.975Z,6.32
2022-10-15T12:32:48.737Z,8.27
2022-10-15T12:35:16.264Z,6.65
2022-10-15T12:37:47.247Z,8.98
2022-10-15T12:40:23.606Z,7.25
2022-10-15T12:43:03.563Z,5.95
2022-10-15T12:45:40.446Z,8.70
2022-10-15T12:48:16.779Z,9.13
2022-10-15T12:50:46.936Z,5.10
2022-10-15T12:53:28.635Z,6.47
2022-10-15T12:56:40.361Z,7.57
2022-10-15T12:59:51.087Z,7.45
2022-10-15T13:02:46.938Z,4.15
2022-10-15T13:05:34.374Z,6.28
2022-10-15T13:08:13.618Z,7.60
2022-10-15T13:10:51.854Z,6.03
2022-10-15T13:13:33.959Z,12.43
2022-10-15T13:16:09.618Z,9.15
2022-10-15T13:18:37.586Z,5.90
2022-10-15T13:21:06.699Z,7.35
2022-10-15T13:23:36.386Z,5.63
2022-10-15T13:26:12.852Z,7.72
2022-10-15T13:28:42.406Z,6.22
2022-10-15T13:31:26.062Z,7.35
2022-10-15T13:34:08.780Z,7.80
2022-10-15T13:36:36.516Z,7.13
2022-10-15T13:39:08.620Z,9.52
2022-10-15T13:41:40.492Z,6.97
2022-10-15T13:44:24.691Z,8.88
2022-10-15T13:46:52.207Z,7.65
2022-10-15T13:49:21.478Z,5.55
2022-10-15T13:51:53.315Z,7.47
2022-10-15T13:54:31.713Z,5.80
2022-10-15T13:57:02.182Z,4.60
2022-10-15T14:02:02.209Z,9.30
2022-10-15T14:04:32.834Z,8.43
2022-10-15T14:07:23.104Z,10.77
2022-10-15T14:12:17.996Z,6.72
2022-10-15T14:14:48.211Z,8.27
2022-10-15T14:17:26.566Z,5.32
2022-10-15T14:20:27.195Z,6.88
2022-10-15T14:22:54.145Z,5.23
2022-10-15T14:25:25.324Z,7.28
2022-10-15T14:27:53.132Z,7.68
2022-10-15T14:30:34.155Z,7.28
2022-10-15T14:33:01.470Z,5.18
2022-10-15T14:35:35.558Z,6.35
2022-10-15T14:38:08.883Z,5.25
2022-10-15T14:40:36.522Z,4.82
2022-10-15T14:43:13.673Z,6.18
2022-10-15T14:45:55.689Z,6.22
2022-10-15T14:48:42.841Z,5.20
2022-10-15T14:51:23.283Z,6.97
2022-10-15T14:53:53.004Z,9.45
2022-10-15T14:56:30.018Z,7.93
2022-10-15T14:58:58.710Z,6.15
2022-10-15T15:01:27.695Z,7.55
2022-10-15T15:03:57.170Z,5.70
2022-10-15T15:06:24.653Z,9.05
2022-10-15T15:08:51.824Z,8.75
2022-10-15T15:11:24.215Z,8.13
2022-10-15T15:13:52.602Z,6.20
2022-10-15T15:16:20.234Z,5.18
2022-10-15T15:18:48.934Z,5.45
2022-10-15T15:21:22.355Z,6.43
2022-10-15T15:23:50.008Z,7.53
2022-10-15T15:26:17.224Z,6.32
2022-10-15T15:28:44.587Z,6.57
2022-10-15T15:31:18.578Z,10.27
2022-10-15T15:33:46.150Z,7.78
2022-10-15T15:36:20.712Z,7.20
2022-10-15T15:38:51.789Z,7.20
2022-10-15T15:41:22.591Z,5.53
2022-10-15T15:43:50.699Z,11.05
2022-10-15T15:46:18.238Z,4.82
2022-10-15T15:48:45.467Z,5.60
2022-10-15T15:51:41.902Z,10.00
2022-10-15T15:54:10.576Z,6.45
2022-10-15T15:56:39.930Z,8.18
2022-10-15T15:59:07.326Z,6.53
2022-10-15T16:01:34.622Z,7.50
2022-10-15T16:04:01.962Z,6.60
2022-10-15T16:06:29.321Z,7.32
2022-10-15T16:08:59.541Z,10.93
2022-10-15T16:11:27.137Z,4.78
2022-10-15T16:13:54.455Z,5.22
2022-10-15T16:16:21.715Z,8.27
2022-10-15T16:18:49.046Z,4.75
2022-10-15T16:21:25.869Z,5.90
2022-10-15T16:23:53.779Z,5.30
2022-10-15T16:26:21.322Z,5.20
2022-10-15T16:28:48.736Z,8.35
2022-10-15T16:31:32.468Z,9.27
2022-10-15T16:33:59.854Z,8.35
2022-10-15T16:36:27.093Z,8.50
2022-10-15T16:38:54.412Z,6.35
2022-10-15T16:41:21.971Z,6.65
2022-10-15T16:43:49.553Z,6.40
2022-10-15T16:46:19.021Z,8.32
2022-10-15T16:48:51.678Z,8.23
2022-10-15T16:51:19.109Z,6.50
2022-10-15T16:53:47.594Z,6.25
2022-10-15T16:56:25.686Z,6.90
2022-10-15T16:58:53.566Z,9.23
2022-10-15T17:01:27.759Z,7.38
2022-10-15T17:03:55.504Z,8.70
2022-10-15T17:06:28.247Z,9.57
2022-10-15T17:08:58.601Z,9.75
2022-10-15T17:11:29.519Z,6.13
2022-10-15T17:14:00.545Z,7.13
2022-10-15T17:16:31.453Z,8.75
2022-10-15T17:18:59.212Z,8.63
2022-10-15T17:21:29.834Z,9.93
2022-10-15T17:24:01.043Z,10.88
2022-10-15T17:26:39.112Z,6.28
2022-10-15T17:29:10.301Z,8.57
2022-10-15T17:31:38.678Z,7.72
2022-10-15T17:34:09.899Z,4.90
2022-10-15T17:36:45.178Z,6.05
2022-10-15T17:39:16.091Z,12.00
2022-10-15T17:41:44.207Z,6.97
2022-10-15T17:44:11.944Z,6.55
2022-10-15T17:46:40.350Z,6.32
2022-10-15T17:49:09.823Z,6.65
2022-10-15T17:51:38.231Z,8.27
2022-10-15T17:54:06.825Z,9.80
2022-10-15T17:56:39.460Z,6.40
2022-10-15T17:59:10.801Z,7.03
2022-10-15T18:01:59.220Z,6.13
2022-10-15T18:04:30.041Z,8.98
2022-10-15T18:06:57.708Z,8.82
2022-10-15T18:09:27.079Z,10.27
2022-10-15T18:12:00.658Z,22.63
2022-10-15T18:14:29.532Z,8.40
2022-10-15T18:16:57.197Z,8.20
2022-10-15T18:19:26.586Z,9.07
2022-10-15T18:21:55.718Z,11.27
2022-10-15T18:24:24.274Z,11.43
2022-10-15T18:26:52.261Z,9.05
2022-10-15T18:29:20.463Z,9.63
2022-10-15T18:31:48.864Z,13.02
2022-10-15T18:34:17.549Z,8.52
2022-10-15T18:36:45.060Z,7.40
2022-10-15T18:39:12.311Z,7.03
2022-10-15T18:41:41.189Z,8.70
2022-10-15T18:44:16.094Z,9.75
2022-10-15T18:46:45.724Z,7.63
2022-10-15T18:49:15.400Z,10.60
2022-10-15T18:51:46.226Z,12.32
2022-10-15T18:54:13.825Z,7.43
2022-10-15T18:56:41.570Z,7.75
2022-10-15T18:59:08.985Z,10.40
2022-10-15T19:01:39.681Z,8.40
2022-10-15T19:04:14.258Z,8.55
2022-10-15T19:06:45.238Z,9.50
2022-10-15T19:09:19.576Z,9.80
2022-10-15T19:11:49.907Z,9.63
2022-10-15T19:14:18.120Z,10.27
2022-10-15T19:16:46.982Z,9.35
2022-10-15T19:19:18.799Z,8.20
2022-10-15T19:21:48.606Z,7.65
2022-10-15T19:24:19.401Z,10.77
2022-10-15T19:26:47.721Z,10.48
2022-10-15T19:29:15.381Z,7.88
2022-10-15T19:31:47.073Z,9.52
2022-10-15T19:34:15.050Z,7.88
2022-10-15T19:36:48.248Z,5.97
2022-10-15T19:39:22.378Z,7.53
2022-10-15T19:41:51.591Z,11.25
2022-10-15T19:44:25.690Z,8.63
2022-10-15T19:46:57.810Z,7.03
2022-10-15T19:49:25.729Z,9.85
2022-10-15T19:51:53.358Z,10.02
2022-10-15T19:54:20.750Z,6.40
2022-10-15T19:56:48.205Z,8.05
2022-10-15T19:59:16.948Z,49.20
2022-10-15T20:01:44.169Z,8.25
2022-10-15T20:04:11.661Z,10.55
2022-10-15T20:06:39.156Z,8.70
2022-10-15T20:09:07.587Z,7.63
2022-10-15T20:11:36.297Z,10.50
2022-10-15T20:14:04.302Z,9.30
2022-10-15T20:16:33.422Z,9.50
2022-10-15T20:19:03.995Z,10.25
2022-10-15T20:21:32.235Z,6.35
2022-10-15T20:24:04.437Z,7.03
2022-10-15T20:26:32.640Z,9.02
2022-10-15T20:29:00.353Z,9.13
2022-10-15T20:31:32.887Z,7.35
2022-10-15T20:34:01.694Z,7.75
2022-10-15T20:36:29.071Z,7.07
2022-10-15T20:38:57.551Z,8.25
2022-10-15T20:41:25.009Z,7.82
2022-10-15T20:43:56.346Z,9.95
2022-10-15T20:46:35.461Z,6.63
2022-10-15T20:49:15.056Z,6.97
2022-10-15T20:51:45.121Z,7.97
2022-10-15T20:54:14.182Z,9.30
2022-10-15T20:56:42.674Z,12.75
2022-10-15T20:59:09.975Z,5.68
2022-10-15T21:01:37.667Z,7.03
2022-10-15T21:04:06.298Z,7.90
2022-10-15T21:06:33.785Z,8.85
2022-10-15T21:09:01.193Z,9.32
2022-10-15T21:11:28.810Z,9.80
2022-10-15T21:13:56.092Z,6.80
2022-10-15T21:16:27.359Z,7.00
2022-10-15T21:18:56.064Z,8.82
2022-10-15T21:21:23.424Z,8.45
2022-10-15T21:23:50.813Z,8.75
2022-10-15T21:26:19.626Z,10.70
2022-10-15T21:28:47.368Z,6.60
2022-10-15T21:31:17.401Z,9.77
2022-10-15T21:33:46.200Z,11.60
2022-10-15T21:36:24.388Z,9.23
2022-10-15T21:39:01.224Z,9.60
2022-10-15T21:41:31.352Z,8.85
2022-10-15T21:44:01.001Z,11.77
2022-10-15T21:46:28.521Z,7.67
2022-10-15T21:48:55.764Z,11.80
2022-10-15T21:51:27.059Z,8.55
2022-10-15T21:53:55.618Z,8.25
2022-10-15T21:56:23.813Z,10.80
2022-10-15T21:58:52.372Z,8.02
2022-10-15T22:01:23.938Z,8.82
2022-10-15T22:03:57.242Z,7.18
2022-10-15T22:06:24.750Z,7.43
2022-10-15T22:08:52.576Z,12.20
2022-10-15T22:11:23.075Z,10.85
2022-10-15T22:16:22.977Z,8.40
2022-10-15T22:18:50.617Z,9.07
2022-10-15T22:21:19.559Z,7.00
2022-10-15T22:23:50.434Z,9.55
2022-10-15T22:26:19.951Z,9.90
2022-10-15T22:28:48.003Z,9.77
2022-10-15T22:31:17.162Z,6.38
2022-10-15T22:33:45.828Z,7.05
2022-10-15T22:36:22.124Z,8.32
2022-10-15T22:38:53.840Z,9.65
2022-10-15T22:41:21.264Z,7.13
2022-10-15T22:43:48.685Z,9.35
2022-10-15T22:46:16.310Z,7.93
2022-10-15T22:48:43.838Z,8.65
2022-10-15T22:51:14.039Z,7.82
2022-10-15T22:53:41.647Z,8.77
2022-10-15T22:56:17.156Z,11.68
2022-10-15T22:58:45.655Z,7.85
2022-10-15T23:01:21.849Z,8.95
2022-10-15T23:03:52.292Z,8.52
2022-10-15T23:06:20.952Z,9.07
2022-10-15T23:08:49.132Z,5.68
2022-10-15T23:11:24.164Z,10.75
2022-10-15T23:13:58.792Z,7.13
2022-10-15T23:16:30.549Z,7.30
2022-10-15T23:19:01.744Z,12.90
2022-10-15T23:21:45.433Z,7.75
2022-10-15T23:24:13.675Z,8.27
2022-10-15T23:26:41.700Z,10.05
2022-10-15T23:29:17.074Z,7.75
2022-10-15T23:31:45.045Z,8.07
2022-10-15T23:34:20.149Z,13.13
2022-10-15T23:36:48.673Z,6.28
2022-10-15T23:39:19.545Z,10.73
2022-10-15T23:41:46.801Z,10.32
2022-10-15T23:44:14.122Z,8.43
2022-10-15T23:46:41.742Z,8.25
2022-10-15T23:49:09.996Z,20.73
2022-10-15T23:51:38.171Z,8.93
2022-10-15T23:54:17.811Z,6.97
2022-10-15T23:56:47.072Z,10.40
2022-10-15T23:59:15.456Z,9.80
